Time,TemperatureF,DewpointF,PressureIn,WindDirection,WindDirectionDegrees,WindSpeedMPH,WindSpeedGustMPH,Humidity,HourlyPrecipIn,Conditions,Clouds,dailyrainin,SoftwareType,DateUTC
2013-06-18 00:02:00,57.0,51.0,-100.00,East,90,14.0,15.0,80,-99.99,,,0.00,,2013-06-18 06:02:00,
2013-06-18 00:11:00,56.0,50.0,-100.00,East,100,12.0,14.0,81,-99.99,,,0.00,,2013-06-18 06:11:00,
2013-06-18 00:23:00,56.0,50.0,-100.00,East,100,12.0,14.0,81,-99.99,,,0.00,,2013-06-18 06:23:00,
2013-06-18 00:32:00,55.0,51.0,-100.00,East,100,12.0,14.0,85,-99.99,,,0.00,,2013-06-18 06:32:00,
2013-06-18 00:43:00,55.0,51.0,-100.00,East,100,12.0,14.0,85,-99.99,,,0.00,,2013-06-18 06:43:00,
2013-06-18 00:53:00,54.0,50.0,-100.00,ESE,115,10.0,11.0,86,-99.99,,,0.00,,2013-06-18 06:53:00,
2013-06-18 01:02:00,54.0,50.0,-100.00,ESE,115,10.0,11.0,86,-99.99,,,0.00,,2013-06-18 07:02:00,
2013-06-18 01:12:00,54.0,51.0,-100.00,East,100,12.0,14.0,89,-99.99,,,0.00,,2013-06-18 07:12:00,
2013-06-18 01:22:00,54.0,51.0,-100.00,East,100,12.0,14.0,89,-99.99,,,0.00,,2013-06-18 07:22:00,
2013-06-18 01:33:00,54.0,51.0,-100.00,ESE,105,12.0,14.0,88,-99.99,,,0.00,,2013-06-18 07:33:00,
2013-06-18 01:43:00,54.0,51.0,-100.00,ESE,105,12.0,14.0,88,-99.99,,,0.00,,2013-06-18 07:43:00,
2013-06-18 01:52:00,54.0,51.0,-100.00,ESE,105,11.0,12.0,89,-99.99,,,0.00,,2013-06-18 07:52:00,
2013-06-18 02:01:00,54.0,51.0,-100.00,ESE,105,11.0,12.0,89,-99.99,,,0.00,,2013-06-18 08:01:00,
2013-06-18 02:11:00,55.0,51.0,-100.00,ESE,120,11.0,13.0,88,-99.99,,,0.00,,2013-06-18 08:11:00,
2013-06-18 02:23:00,55.0,51.0,-100.00,ESE,120,11.0,13.0,88,-99.99,,,0.00,,2013-06-18 08:23:00,
2013-06-18 02:33:00,55.0,50.0,-100.00,ESE,110,12.0,14.0,85,-99.99,,,0.00,,2013-06-18 08:33:00,
2013-06-18 02:43:00,55.0,50.0,-100.00,ESE,110,12.0,14.0,85,-99.99,,,0.00,,2013-06-18 08:43:00,
2013-06-18 02:52:00,55.0,51.0,-100.00,ESE,110,11.0,13.0,86,-99.99,,,0.00,,2013-06-18 08:52:00,
2013-06-18 03:02:00,55.0,51.0,-100.00,ESE,110,11.0,13.0,86,-99.99,,,0.00,,2013-06-18 09:02:00,
2013-06-18 03:12:00,54.0,50.0,-100.00,ESE,115,14.0,16.0,86,-99.99,,,0.00,,2013-06-18 09:12:00,
2013-06-18 03:22:00,54.0,50.0,-100.00,ESE,115,14.0,16.0,86,-99.99,,,0.00,,2013-06-18 09:22:00,
2013-06-18 03:34:00,54.0,50.0,-100.00,ESE,105,14.0,16.0,86,-99.99,,,0.00,,2013-06-18 09:34:00,
2013-06-18 03:43:00,54.0,50.0,-100.00,ESE,105,14.0,16.0,86,-99.99,,,0.00,,2013-06-18 09:43:00,
2013-06-18 03:53:00,54.0,49.0,-100.00,ESE,110,10.0,12.0,86,-99.99,,,0.00,,2013-06-18 09:53:00,
2013-06-18 04:02:00,54.0,49.0,-100.00,ESE,110,10.0,12.0,86,-99.99,,,0.00,,2013-06-18 10:02:00,
2013-06-18 04:11:00,52.0,49.0,-100.00,ESE,110,9.0,11.0,88,-99.99,,,0.00,,2013-06-18 10:11:00,
2013-06-18 04:22:00,52.0,49.0,-100.00,ESE,110,9.0,11.0,88,-99.99,,,0.00,,2013-06-18 10:22:00,
2013-06-18 04:33:00,52.0,49.0,-100.00,ESE,110,10.0,11.0,87,-99.99,,,0.00,,2013-06-18 10:33:00,
2013-06-18 04:43:00,52.0,49.0,-100.00,ESE,110,10.0,11.0,87,-99.99,,,0.00,,2013-06-18 10:43:00,
2013-06-18 04:53:00,52.0,48.0,-100.00,ESE,105,8.0,8.0,88,-99.99,,,0.00,,2013-06-18 10:53:00,
2013-06-18 05:02:00,52.0,48.0,-100.00,ESE,105,8.0,8.0,88,-99.99,,,0.00,,2013-06-18 11:02:00,
2013-06-18 05:11:00,51.0,48.0,-100.00,East,100,9.0,9.0,89,-99.99,,,0.00,,2013-06-18 11:11:00,
2013-06-18 05:22:00,51.0,48.0,-100.00,East,100,9.0,9.0,89,-99.99,,,0.00,,2013-06-18 11:22:00,
2013-06-18 05:32:00,50.0,48.0,-100.00,ESE,105,10.0,11.0,90,-99.99,,,0.00,,2013-06-18 11:32:00,
2013-06-18 05:43:00,50.0,48.0,-100.00,ESE,105,10.0,11.0,90,-99.99,,,0.00,,2013-06-18 11:43:00,
2013-06-18 05:52:00,50.0,48.0,-100.00,ESE,110,10.0,11.0,90,-99.99,,,0.00,,2013-06-18 11:52:00,
2013-06-18 06:01:00,50.0,48.0,-100.00,ESE,110,10.0,11.0,90,-99.99,,,0.00,,2013-06-18 12:01:00,
2013-06-18 06:11:00,51.0,48.0,-100.00,ESE,105,9.0,11.0,88,-99.99,,,0.00,,2013-06-18 12:11:00,
2013-06-18 06:22:00,51.0,48.0,-100.00,ESE,105,9.0,11.0,88,-99.99,,,0.00,,2013-06-18 12:22:00,
2013-06-18 06:33:00,51.0,48.0,-100.00,ESE,105,9.0,11.0,88,-99.99,,,0.00,,2013-06-18 12:33:00,
2013-06-18 06:43:00,51.0,48.0,-100.00,ESE,105,9.0,11.0,88,-99.99,,,0.00,,2013-06-18 12:43:00,
2013-06-18 06:52:00,53.0,48.0,-100.00,ESE,105,11.0,14.0,81,-99.99,,,0.00,,2013-06-18 12:52:00,
2013-06-18 07:02:00,53.0,48.0,-100.00,ESE,105,11.0,14.0,81,-99.99,,,0.00,,2013-06-18 13:02:00,
2013-06-18 07:12:00,56.0,48.0,-100.00,East,95,14.0,16.0,73,-99.99,,,0.00,,2013-06-18 13:12:00,
2013-06-18 07:22:00,56.0,48.0,-100.00,East,95,14.0,16.0,73,-99.99,,,0.00,,2013-06-18 13:22:00,
2013-06-18 07:33:00,58.0,48.0,-100.00,East,100,12.0,15.0,70,-99.99,,,0.00,,2013-06-18 13:33:00,
2013-06-18 07:43:00,58.0,48.0,-100.00,East,100,12.0,15.0,70,-99.99,,,0.00,,2013-06-18 13:43:00,
2013-06-18 07:52:00,59.0,48.0,-100.00,ESE,105,13.0,16.0,67,-99.99,,,0.00,,2013-06-18 13:52:00,
2013-06-18 08:02:00,59.0,48.0,-100.00,ESE,105,13.0,16.0,67,-99.99,,,0.00,,2013-06-18 14:02:00,
2013-06-18 08:11:00,61.0,49.0,-100.00,ESE,105,17.0,19.0,65,-99.99,,,0.00,,2013-06-18 14:11:00,
2013-06-18 08:22:00,61.0,49.0,-100.00,ESE,105,17.0,19.0,65,-99.99,,,0.00,,2013-06-18 14:22:00,
2013-06-18 08:33:00,62.0,49.0,-100.00,East,100,17.0,21.0,63,-99.99,,,0.00,,2013-06-18 14:33:00,
2013-06-18 08:43:00,62.0,49.0,-100.00,East,100,17.0,21.0,63,-99.99,,,0.00,,2013-06-18 14:43:00,
2013-06-18 08:53:00,62.0,49.0,-100.00,East,100,17.0,21.0,63,-99.99,,,0.00,,2013-06-18 14:53:00,
2013-06-18 09:11:00,64.0,50.0,-100.00,East,100,17.0,19.0,60,-99.99,,,0.00,,2013-06-18 15:11:00,
2013-06-18 09:22:00,64.0,50.0,-100.00,East,100,17.0,19.0,60,-99.99,,,0.00,,2013-06-18 15:22:00,
2013-06-18 09:33:00,66.0,52.0,-100.00,ESE,110,15.0,19.0,59,-99.99,,,0.00,,2013-06-18 15:33:00,
2013-06-18 09:43:00,66.0,52.0,-100.00,ESE,110,15.0,19.0,59,-99.99,,,0.00,,2013-06-18 15:43:00,
2013-06-18 09:53:00,68.0,52.0,-100.00,East,90,12.0,15.0,57,-99.99,,,0.00,,2013-06-18 15:53:00,
2013-06-18 10:01:00,68.0,52.0,-100.00,East,90,12.0,15.0,57,-99.99,,,0.00,,2013-06-18 16:01:00,
2013-06-18 10:11:00,68.0,52.0,-100.00,ESE,105,16.0,19.0,57,-99.99,,,0.00,,2013-06-18 16:11:00,
2013-06-18 10:22:00,68.0,52.0,-100.00,ESE,105,16.0,19.0,57,-99.99,,,0.00,,2013-06-18 16:22:00,
2013-06-18 10:33:00,69.0,53.0,-100.00,East,90,14.0,17.0,55,-99.99,,,0.00,,2013-06-18 16:33:00,
2013-06-18 10:43:00,69.0,53.0,-100.00,East,90,14.0,17.0,55,-99.99,,,0.00,,2013-06-18 16:43:00,
2013-06-18 10:53:00,70.0,52.0,-100.00,ESE,105,14.0,17.0,54,-99.99,,,0.00,,2013-06-18 16:53:00,
2013-06-18 11:02:00,70.0,52.0,-100.00,ESE,105,14.0,17.0,54,-99.99,,,0.00,,2013-06-18 17:02:00,
2013-06-18 11:11:00,71.0,53.0,-100.00,East,100,16.0,19.0,52,-99.99,,,0.00,,2013-06-18 17:11:00,
2013-06-18 11:22:00,71.0,53.0,-100.00,East,100,16.0,19.0,52,-99.99,,,0.00,,2013-06-18 17:22:00,
2013-06-18 11:33:00,73.0,53.0,-100.00,ESE,105,13.0,17.0,50,-99.99,,,0.00,,2013-06-18 17:33:00,
2013-06-18 11:43:00,73.0,53.0,-100.00,ESE,105,13.0,17.0,50,-99.99,,,0.00,,2013-06-18 17:43:00,
2013-06-18 11:53:00,73.0,53.0,-100.00,ESE,120,15.0,18.0,50,-99.99,,,0.00,,2013-06-18 17:53:00,
2013-06-18 12:02:00,73.0,53.0,-100.00,ESE,120,15.0,18.0,50,-99.99,,,0.00,,2013-06-18 18:02:00,
2013-06-18 12:11:00,75.0,53.0,-100.00,East,85,8.0,9.0,46,-99.99,,,0.00,,2013-06-18 18:11:00,
2013-06-18 12:22:00,75.0,53.0,-100.00,East,85,8.0,9.0,46,-99.99,,,0.00,,2013-06-18 18:22:00,
2013-06-18 12:33:00,75.0,52.0,-100.00,East,85,16.0,17.0,44,-99.99,,,0.00,,2013-06-18 18:33:00,
2013-06-18 12:42:00,75.0,52.0,-100.00,East,85,16.0,17.0,44,-99.99,,,0.00,,2013-06-18 18:42:00,
2013-06-18 12:53:00,76.0,51.0,-100.00,East,100,11.0,13.0,42,-99.99,,,0.00,,2013-06-18 18:53:00,
2013-06-18 13:01:00,76.0,51.0,-100.00,East,100,11.0,13.0,42,-99.99,,,0.00,,2013-06-18 19:01:00,
2013-06-18 13:11:00,77.0,52.0,-100.00,SE,130,12.0,14.0,43,-99.99,,,0.00,,2013-06-18 19:11:00,
2013-06-18 13:22:00,77.0,52.0,-100.00,SE,130,12.0,14.0,43,-99.99,,,0.00,,2013-06-18 19:22:00,
2013-06-18 13:33:00,77.0,51.0,-100.00,ESE,105,13.0,16.0,40,-99.99,,,0.00,,2013-06-18 19:33:00,
2013-06-18 13:43:00,77.0,51.0,-100.00,ESE,105,13.0,16.0,40,-99.99,,,0.00,,2013-06-18 19:43:00,
2013-06-18 13:52:00,78.0,53.0,-100.00,East,80,14.0,17.0,42,-99.99,,,0.00,,2013-06-18 19:52:00,
2013-06-18 14:02:00,78.0,53.0,-100.00,East,80,14.0,17.0,42,-99.99,,,0.00,,2013-06-18 20:02:00,
2013-06-18 14:11:00,78.0,51.0,-100.00,East,100,14.0,16.0,39,-99.99,,,0.00,,2013-06-18 20:11:00,
2013-06-18 14:23:00,78.0,51.0,-100.00,East,100,14.0,16.0,39,-99.99,,,0.00,,2013-06-18 20:23:00,
2013-06-18 14:33:00,79.0,51.0,-100.00,East,100,14.0,18.0,38,-99.99,,,0.00,,2013-06-18 20:33:00,
2013-06-18 14:43:00,79.0,51.0,-100.00,East,100,14.0,18.0,38,-99.99,,,0.00,,2013-06-18 20:43:00,
2013-06-18 15:11:00,79.0,50.0,-100.00,ESE,120,16.0,20.0,37,-99.99,,,0.00,,2013-06-18 21:11:00,
2013-06-18 15:23:00,79.0,50.0,-100.00,ESE,120,16.0,20.0,37,-99.99,,,0.00,,2013-06-18 21:23:00,
2013-06-18 15:43:00,80.0,50.0,-100.00,East,90,14.0,16.0,36,-99.99,,,0.00,,2013-06-18 21:43:00,
2013-06-18 15:52:00,79.0,49.0,-100.00,ESE,110,17.0,20.0,36,-99.99,,,0.00,,2013-06-18 21:52:00,
2013-06-18 16:01:00,79.0,49.0,-100.00,ESE,110,17.0,20.0,36,-99.99,,,0.00,,2013-06-18 22:01:00,
2013-06-18 16:34:00,79.0,49.0,-100.00,ESE,110,17.0,19.0,35,-99.99,,,0.00,,2013-06-18 22:34:00,
2013-06-18 16:42:00,79.0,49.0,-100.00,ESE,110,17.0,19.0,35,-99.99,,,0.00,,2013-06-18 22:42:00,
2013-06-18 18:11:00,79.0,48.0,-100.00,ESE,110,19.0,22.0,34,-99.99,,,0.00,,2013-06-19 00:11:00,
2013-06-18 18:22:00,79.0,48.0,-100.00,ESE,110,19.0,22.0,34,-99.99,,,0.00,,2013-06-19 00:22:00,
2013-06-18 18:33:00,78.0,48.0,-100.00,ESE,115,17.0,22.0,34,-99.99,,,0.00,,2013-06-19 00:33:00,
2013-06-18 18:43:00,78.0,48.0,-100.00,ESE,115,17.0,22.0,34,-99.99,,,0.00,,2013-06-19 00:43:00,
2013-06-18 18:53:00,78.0,47.0,-100.00,ESE,115,21.0,24.0,34,-99.99,,,0.00,,2013-06-19 00:53:00,
2013-06-18 19:01:00,78.0,47.0,-100.00,ESE,115,21.0,24.0,34,-99.99,,,0.00,,2013-06-19 01:01:00,
2013-06-18 19:11:00,77.0,49.0,-100.00,ESE,120,19.0,23.0,38,-99.99,,,0.00,,2013-06-19 01:11:00,
2013-06-18 19:22:00,77.0,49.0,-100.00,ESE,120,19.0,23.0,38,-99.99,,,0.00,,2013-06-19 01:22:00,
2013-06-18 19:32:00,77.0,48.0,-100.00,ESE,115,21.0,25.0,37,-99.99,,,0.00,,2013-06-19 01:32:00,
2013-06-18 19:42:00,77.0,48.0,-100.00,ESE,115,21.0,25.0,37,-99.99,,,0.00,,2013-06-19 01:42:00,
2013-06-18 19:53:00,76.0,49.0,-100.00,ESE,120,18.0,21.0,38,-99.99,,,0.00,,2013-06-19 01:53:00,
2013-06-18 20:01:00,76.0,49.0,-100.00,ESE,120,18.0,21.0,38,-99.99,,,0.00,,2013-06-19 02:01:00,
2013-06-18 20:11:00,74.0,49.0,-100.00,ESE,105,14.0,16.0,41,-99.99,,,0.00,,2013-06-19 02:11:00,
2013-06-18 20:21:00,74.0,49.0,-100.00,ESE,105,14.0,16.0,41,-99.99,,,0.00,,2013-06-19 02:21:00,
2013-06-18 20:32:00,74.0,50.0,-100.00,ESE,105,16.0,18.0,43,-99.99,,,0.00,,2013-06-19 02:32:00,
2013-06-18 20:42:00,74.0,50.0,-100.00,ESE,105,16.0,18.0,43,-99.99,,,0.00,,2013-06-19 02:42:00,
2013-06-18 20:51:00,72.0,50.0,-100.00,East,100,13.0,14.0,46,-99.99,,,0.00,,2013-06-19 02:51:00,
2013-06-18 21:01:00,72.0,50.0,-100.00,East,100,13.0,14.0,46,-99.99,,,0.00,,2013-06-19 03:01:00,
2013-06-18 21:11:00,70.0,51.0,-100.00,East,100,14.0,17.0,50,-99.99,,,0.00,,2013-06-19 03:11:00,
2013-06-18 21:22:00,70.0,51.0,-100.00,East,100,14.0,17.0,50,-99.99,,,0.00,,2013-06-19 03:22:00,
2013-06-18 21:33:00,69.0,51.0,-100.00,ESE,105,13.0,15.0,52,-99.99,,,0.00,,2013-06-19 03:33:00,
2013-06-18 21:42:00,69.0,51.0,-100.00,ESE,105,13.0,15.0,52,-99.99,,,0.00,,2013-06-19 03:42:00,
2013-06-18 21:52:00,69.0,51.0,-100.00,ESE,105,11.0,12.0,53,-99.99,,,0.00,,2013-06-19 03:52:00,
2013-06-18 22:01:00,69.0,51.0,-100.00,ESE,105,11.0,12.0,53,-99.99,,,0.00,,2013-06-19 04:01:00,
2013-06-18 22:11:00,68.0,52.0,-100.00,East,100,13.0,15.0,56,-99.99,,,0.00,,2013-06-19 04:11:00,
2013-06-18 22:22:00,68.0,52.0,-100.00,East,100,13.0,15.0,56,-99.99,,,0.00,,2013-06-19 04:22:00,
2013-06-18 22:32:00,68.0,52.0,-100.00,East,95,14.0,16.0,58,-99.99,,,0.00,,2013-06-19 04:32:00,
2013-06-18 22:42:00,68.0,52.0,-100.00,East,95,14.0,16.0,58,-99.99,,,0.00,,2013-06-19 04:42:00,
2013-06-18 22:53:00,67.0,53.0,-100.00,East,85,14.0,15.0,62,-99.99,,,0.00,,2013-06-19 04:53:00,
2013-06-18 23:01:00,67.0,53.0,-100.00,East,85,14.0,15.0,62,-99.99,,,0.00,,2013-06-19 05:01:00,
2013-06-18 23:11:00,67.0,54.0,-100.00,East,90,14.0,16.0,64,-99.99,,,0.00,,2013-06-19 05:11:00,
2013-06-18 23:22:00,67.0,54.0,-100.00,East,90,14.0,16.0,64,-99.99,,,0.00,,2013-06-19 05:22:00,
2013-06-18 23:32:00,67.0,54.0,-100.00,East,85,18.0,21.0,64,-99.99,,,0.00,,2013-06-19 05:32:00,
2013-06-18 23:42:00,67.0,54.0,-100.00,East,85,18.0,21.0,64,-99.99,,,0.00,,2013-06-19 05:42:00,
2013-06-18 23:52:00,67.0,55.0,-100.00,East,90,20.0,23.0,64,-99.99,,,0.00,,2013-06-19 05:52:00,